sensor_id;sensor_type;location;lat;lon;timestamp;pressure;altitude;pressure_sealevel;temperature;humidity
49463;BME280;35357;51.722;0.500;2023-08-31T00:01:53;100701.64;;;15.82;63.08
49463;BME280;35357;51.722;0.500;2023-08-31T00:04:20;100703.98;;;15.66;63.49
49463;BME280;35357;51.722;0.500;2023-08-31T00:06:47;100702.75;;;15.33;62.80
49463;BME280;35357;51.722;0.500;2023-08-31T00:09:14;100703.28;;;15.64;63.24
49463;BME280;35357;51.722;0.500;2023-08-31T00:11:41;100701.18;;;15.78;63.32
49463;BME280;35357;51.722;0.500;2023-08-31T00:14:08;100701.02;;;16.15;61.51
49463;BME280;35357;51.722;0.500;2023-08-31T00:16:34;100704.05;;;16.19;61.98
49463;BME280;35357;51.722;0.500;2023-08-31T00:19:02;100706.70;;;15.97;62.98
49463;BME280;35357;51.722;0.500;2023-08-31T00:21:29;100708.03;;;16.12;61.98
49463;BME280;35357;51.722;0.500;2023-08-31T00:23:56;100706.63;;;15.97;62.97
49463;BME280;35357;51.722;0.500;2023-08-31T00:26:23;100704.82;;;14.05;69.44
49463;BME280;35357;51.722;0.500;2023-08-31T00:28:49;100697.31;;;15.28;65.85
49463;BME280;35357;51.722;0.500;2023-08-31T00:31:17;100696.08;;;16.02;64.57
49463;BME280;35357;51.722;0.500;2023-08-31T00:33:43;100694.17;;;15.79;64.38
49463;BME280;35357;51.722;0.500;2023-08-31T00:36:10;100694.44;;;15.65;64.70
49463;BME280;35357;51.722;0.500;2023-08-31T00:38:37;100685.99;;;15.51;65.25
49463;BME280;35357;51.722;0.500;2023-08-31T00:41:04;100683.98;;;15.72;64.68
49463;BME280;35357;51.722;0.500;2023-08-31T00:43:32;100685.94;;;15.89;63.54
49463;BME280;35357;51.722;0.500;2023-08-31T00:45:58;100690.93;;;16.23;63.07
49463;BME280;35357;51.722;0.500;2023-08-31T00:48:25;100693.81;;;16.08;62.66
49463;BME280;35357;51.722;0.500;2023-08-31T00:50:53;100691.01;;;16.11;62.53
49463;BME280;35357;51.722;0.500;2023-08-31T00:53:21;100689.69;;;16.39;62.23
49463;BME280;35357;51.722;0.500;2023-08-31T00:55:49;100694.04;;;15.62;64.62
49463;BME280;35357;51.722;0.500;2023-08-31T00:58:16;100696.95;;;15.53;64.52
49463;BME280;35357;51.722;0.500;2023-08-31T01:00:48;100707.83;;;14.29;67.20
49463;BME280;35357;51.722;0.500;2023-08-31T01:03:25;100710.15;;;14.50;69.39
49463;BME280;35357;51.722;0.500;2023-08-31T01:06:02;100706.25;;;14.13;70.29
49463;BME280;35357;51.722;0.500;2023-08-31T01:08:41;100705.40;;;15.14;68.02
49463;BME280;35357;51.722;0.500;2023-08-31T01:11:16;100696.67;;;14.30;70.59
49463;BME280;35357;51.722;0.500;2023-08-31T01:13:51;100691.60;;;13.01;75.75
49463;BME280;35357;51.722;0.500;2023-08-31T01:16:22;100693.70;;;14.15;72.67
49463;BME280;35357;51.722;0.500;2023-08-31T01:18:52;100697.15;;;13.91;73.89
49463;BME280;35357;51.722;0.500;2023-08-31T01:21:24;100698.63;;;12.76;78.54
49463;BME280;35357;51.722;0.500;2023-08-31T01:23:52;100699.09;;;12.60;78.79
49463;BME280;35357;51.722;0.500;2023-08-31T01:26:21;100692.63;;;13.66;74.74
49463;BME280;35357;51.722;0.500;2023-08-31T01:28:48;100689.41;;;13.40;75.42
49463;BME280;35357;51.722;0.500;2023-08-31T01:31:15;100691.47;;;14.66;71.71
49463;BME280;35357;51.722;0.500;2023-08-31T01:33:43;100687.79;;;14.56;71.82
49463;BME280;35357;51.722;0.500;2023-08-31T01:36:17;100683.97;;;13.46;75.48
49463;BME280;35357;51.722;0.500;2023-08-31T01:38:48;100677.53;;;13.05;77.30
49463;BME280;35357;51.722;0.500;2023-08-31T01:41:19;100679.37;;;11.29;85.71
49463;BME280;35357;51.722;0.500;2023-08-31T01:43:48;100685.76;;;12.01;85.04
49463;BME280;35357;51.722;0.500;2023-08-31T01:46:15;100686.44;;;12.18;82.48
49463;BME280;35357;51.722;0.500;2023-08-31T01:48:43;100685.30;;;12.44;81.37
49463;BME280;35357;51.722;0.500;2023-08-31T01:51:10;100685.80;;;12.96;80.59
49463;BME280;35357;51.722;0.500;2023-08-31T01:53:37;100688.94;;;12.45;81.52
49463;BME280;35357;51.722;0.500;2023-08-31T01:56:05;100683.30;;;12.45;80.84
49463;BME280;35357;51.722;0.500;2023-08-31T01:58:32;100682.65;;;13.27;78.56
49463;BME280;35357;51.722;0.500;2023-08-31T02:00:58;100681.66;;;14.06;75.08
49463;BME280;35357;51.722;0.500;2023-08-31T02:03:25;100683.18;;;13.32;76.88
49463;BME280;35357;51.722;0.500;2023-08-31T02:05:52;100689.96;;;14.24;75.03
49463;BME280;35357;51.722;0.500;2023-08-31T02:08:19;100688.70;;;14.26;72.22
49463;BME280;35357;51.722;0.500;2023-08-31T02:10:46;100691.14;;;15.13;70.06
49463;BME280;35357;51.722;0.500;2023-08-31T02:13:14;100691.88;;;14.87;69.97
49463;BME280;35357;51.722;0.500;2023-08-31T02:15:42;100693.99;;;15.12;69.04
49463;BME280;35357;51.722;0.500;2023-08-31T02:18:09;100693.54;;;15.03;69.10
49463;BME280;35357;51.722;0.500;2023-08-31T02:20:35;100693.21;;;15.33;67.60
49463;BME280;35357;51.722;0.500;2023-08-31T02:23:03;100691.81;;;15.18;67.79
49463;BME280;35357;51.722;0.500;2023-08-31T02:25:30;100689.46;;;15.23;67.37
49463;BME280;35357;51.722;0.500;2023-08-31T02:27:57;100690.32;;;15.29;67.15
49463;BME280;35357;51.722;0.500;2023-08-31T02:30:24;100686.78;;;15.57;66.68
49463;BME280;35357;51.722;0.500;2023-08-31T02:32:51;100683.48;;;15.40;66.23
49463;BME280;35357;51.722;0.500;2023-08-31T02:35:18;100688.36;;;15.47;65.91
49463;BME280;35357;51.722;0.500;2023-08-31T02:37:46;100695.92;;;15.38;65.85
49463;BME280;35357;51.722;0.500;2023-08-31T02:40:12;100697.54;;;15.40;65.74
49463;BME280;35357;51.722;0.500;2023-08-31T02:42:39;100696.66;;;15.27;65.94
49463;BME280;35357;51.722;0.500;2023-08-31T02:45:07;100697.29;;;14.65;66.43
49463;BME280;35357;51.722;0.500;2023-08-31T02:47:34;100699.37;;;15.07;66.49
49463;BME280;35357;51.722;0.500;2023-08-31T02:50:01;100700.56;;;15.10;66.28
49463;BME280;35357;51.722;0.500;2023-08-31T02:52:27;100699.42;;;15.03;66.19
49463;BME280;35357;51.722;0.500;2023-08-31T02:54:54;100692.46;;;14.77;67.44
49463;BME280;35357;51.722;0.500;2023-08-31T02:57:21;100689.95;;;14.70;67.09
49463;BME280;35357;51.722;0.500;2023-08-31T02:59:50;100689.36;;;14.98;66.93
49463;BME280;35357;51.722;0.500;2023-08-31T03:02:16;100693.19;;;14.89;67.28
49463;BME280;35357;51.722;0.500;2023-08-31T03:04:43;100697.43;;;15.12;66.64
49463;BME280;35357;51.722;0.500;2023-08-31T03:07:10;100691.44;;;14.74;67.86
49463;BME280;35357;51.722;0.500;2023-08-31T03:09:37;100690.53;;;15.11;67.77
49463;BME280;35357;51.722;0.500;2023-08-31T03:12:04;100694.55;;;14.59;68.65
49463;BME280;35357;51.722;0.500;2023-08-31T03:14:31;100690.65;;;14.60;68.54
49463;BME280;35357;51.722;0.500;2023-08-31T03:16:58;100689.81;;;14.75;68.26
49463;BME280;35357;51.722;0.500;2023-08-31T03:19:25;100690.67;;;14.81;67.94
49463;BME280;35357;51.722;0.500;2023-08-31T03:21:52;100687.93;;;14.76;67.92
49463;BME280;35357;51.722;0.500;2023-08-31T03:24:18;100686.28;;;15.17;67.27
49463;BME280;35357;51.722;0.500;2023-08-31T03:26:45;100686.89;;;14.82;66.91
49463;BME280;35357;51.722;0.500;2023-08-31T03:29:12;100686.24;;;14.83;66.70
49463;BME280;35357;51.722;0.500;2023-08-31T03:31:39;100686.27;;;14.84;66.66
49463;BME280;35357;51.722;0.500;2023-08-31T03:34:06;100687.79;;;14.75;66.82
49463;BME280;35357;51.722;0.500;2023-08-31T03:36:32;100689.61;;;14.90;66.81
49463;BME280;35357;51.722;0.500;2023-08-31T03:38:59;100689.48;;;14.72;67.66
49463;BME280;35357;51.722;0.500;2023-08-31T03:41:26;100691.75;;;14.76;67.59
49463;BME280;35357;51.722;0.500;2023-08-31T03:43:53;100691.11;;;14.57;67.60
49463;BME280;35357;51.722;0.500;2023-08-31T03:46:20;100689.75;;;14.79;67.60
49463;BME280;35357;51.722;0.500;2023-08-31T03:48:47;100690.28;;;14.69;67.78
49463;BME280;35357;51.722;0.500;2023-08-31T03:51:13;100692.57;;;14.64;68.17
49463;BME280;35357;51.722;0.500;2023-08-31T03:53:40;100695.65;;;14.85;67.37
49463;BME280;35357;51.722;0.500;2023-08-31T03:56:07;100699.29;;;14.52;67.78
49463;BME280;35357;51.722;0.500;2023-08-31T03:58:34;100699.02;;;14.82;67.46
49463;BME280;35357;51.722;0.500;2023-08-31T04:01:00;100693.53;;;14.91;67.73
49463;BME280;35357;51.722;0.500;2023-08-31T04:03:27;100694.07;;;14.72;67.64
49463;BME280;35357;51.722;0.500;2023-08-31T04:05:55;100697.53;;;14.78;67.55
49463;BME280;35357;51.722;0.500;2023-08-31T04:08:22;100694.26;;;14.75;67.26
49463;BME280;35357;51.722;0.500;2023-08-31T04:10:49;100695.15;;;14.91;67.86
49463;BME280;35357;51.722;0.500;2023-08-31T04:13:16;100693.83;;;14.82;67.78
49463;BME280;35357;51.722;0.500;2023-08-31T04:15:44;100689.90;;;13.79;70.02
49463;BME280;35357;51.722;0.500;2023-08-31T04:18:10;100692.81;;;14.29;69.83
49463;BME280;35357;51.722;0.500;2023-08-31T04:20:37;100696.60;;;14.40;69.85
49463;BME280;35357;51.722;0.500;2023-08-31T04:23:04;100697.11;;;13.84;70.17
49463;BME280;35357;51.722;0.500;2023-08-31T04:25:32;100696.35;;;14.32;69.35
49463;BME280;35357;51.722;0.500;2023-08-31T04:27:59;100697.36;;;14.32;68.98
49463;BME280;35357;51.722;0.500;2023-08-31T04:30:25;100699.82;;;14.47;68.43
49463;BME280;35357;51.722;0.500;2023-08-31T04:32:52;100705.30;;;14.27;69.40
49463;BME280;35357;51.722;0.500;2023-08-31T04:35:19;100706.85;;;14.64;69.14
49463;BME280;35357;51.722;0.500;2023-08-31T04:37:47;100708.31;;;14.40;69.14
49463;BME280;35357;51.722;0.500;2023-08-31T04:40:14;100708.30;;;14.27;69.58
49463;BME280;35357;51.722;0.500;2023-08-31T04:42:41;100703.23;;;14.69;69.11
49463;BME280;35357;51.722;0.500;2023-08-31T04:45:08;100703.82;;;14.25;69.10
49463;BME280;35357;51.722;0.500;2023-08-31T04:47:35;100703.48;;;14.66;69.32
49463;BME280;35357;51.722;0.500;2023-08-31T04:50:04;100711.95;;;14.46;69.04
49463;BME280;35357;51.722;0.500;2023-08-31T04:52:32;100713.25;;;14.75;68.95
49463;BME280;35357;51.722;0.500;2023-08-31T04:55:00;100717.81;;;14.39;69.13
49463;BME280;35357;51.722;0.500;2023-08-31T04:57:28;100717.08;;;14.43;69.07
49463;BME280;35357;51.722;0.500;2023-08-31T04:59:55;100713.20;;;14.65;69.45
49463;BME280;35357;51.722;0.500;2023-08-31T05:02:23;100711.28;;;14.82;69.12
49463;BME280;35357;51.722;0.500;2023-08-31T05:04:51;100711.78;;;14.72;69.31
49463;BME280;35357;51.722;0.500;2023-08-31T05:07:18;100714.03;;;14.75;69.42
49463;BME280;35357;51.722;0.500;2023-08-31T05:09:44;100709.67;;;14.28;69.59
49463;BME280;35357;51.722;0.500;2023-08-31T05:12:11;100714.38;;;14.91;69.21
49463;BME280;35357;51.722;0.500;2023-08-31T05:14:38;100711.47;;;14.95;69.04
49463;BME280;35357;51.722;0.500;2023-08-31T05:17:05;100716.87;;;14.65;68.97
49463;BME280;35357;51.722;0.500;2023-08-31T05:19:33;100718.56;;;14.89;69.25
49463;BME280;35357;51.722;0.500;2023-08-31T05:22:00;100719.60;;;14.91;69.17
49463;BME280;35357;51.722;0.500;2023-08-31T05:24:28;100720.45;;;14.91;69.36
49463;BME280;35357;51.722;0.500;2023-08-31T05:26:54;100724.94;;;14.75;69.13
49463;BME280;35357;51.722;0.500;2023-08-31T05:29:21;100729.26;;;14.76;69.25
49463;BME280;35357;51.722;0.500;2023-08-31T05:31:48;100731.55;;;14.72;69.23
49463;BME280;35357;51.722;0.500;2023-08-31T05:34:17;100734.96;;;14.88;68.86
49463;BME280;35357;51.722;0.500;2023-08-31T05:36:43;100737.32;;;14.98;68.45
49463;BME280;35357;51.722;0.500;2023-08-31T05:39:10;100739.89;;;14.67;68.31
49463;BME280;35357;51.722;0.500;2023-08-31T05:41:40;100744.89;;;15.05;68.51
49463;BME280;35357;51.722;0.500;2023-08-31T05:44:08;100746.03;;;14.76;68.83
49463;BME280;35357;51.722;0.500;2023-08-31T05:46:35;100750.59;;;14.96;68.63
49463;BME280;35357;51.722;0.500;2023-08-31T05:49:02;100749.79;;;15.08;68.45
49463;BME280;35357;51.722;0.500;2023-08-31T05:51:29;100748.59;;;15.35;68.65
49463;BME280;35357;51.722;0.500;2023-08-31T05:53:56;100747.84;;;15.17;68.57
49463;BME280;35357;51.722;0.500;2023-08-31T05:56:24;100747.36;;;15.30;68.23
49463;BME280;35357;51.722;0.500;2023-08-31T05:58:51;100747.05;;;15.31;68.24
49463;BME280;35357;51.722;0.500;2023-08-31T06:01:18;100749.99;;;15.46;67.84
49463;BME280;35357;51.722;0.500;2023-08-31T06:03:45;100746.50;;;15.55;67.61
49463;BME280;35357;51.722;0.500;2023-08-31T06:06:12;100742.52;;;15.75;67.11
49463;BME280;35357;51.722;0.500;2023-08-31T06:08:38;100735.96;;;15.84;66.89
49463;BME280;35357;51.722;0.500;2023-08-31T06:11:05;100730.15;;;15.60;66.74
49463;BME280;35357;51.722;0.500;2023-08-31T06:13:33;100733.15;;;15.79;66.44
49463;BME280;35357;51.722;0.500;2023-08-31T06:15:59;100732.36;;;15.84;66.60
49463;BME280;35357;51.722;0.500;2023-08-31T06:18:26;100735.46;;;15.83;67.27
49463;BME280;35357;51.722;0.500;2023-08-31T06:20:53;100737.81;;;16.11;67.45
49463;BME280;35357;51.722;0.500;2023-08-31T06:23:20;100747.14;;;16.03;67.28
49463;BME280;35357;51.722;0.500;2023-08-31T06:25:47;100745.09;;;16.03;67.54
49463;BME280;35357;51.722;0.500;2023-08-31T06:28:14;100742.40;;;15.90;67.72
49463;BME280;35357;51.722;0.500;2023-08-31T06:30:41;100744.52;;;16.35;66.94
49463;BME280;35357;51.722;0.500;2023-08-31T06:33:09;100745.60;;;16.08;67.39
49463;BME280;35357;51.722;0.500;2023-08-31T06:35:35;100746.06;;;16.03;67.79
49463;BME280;35357;51.722;0.500;2023-08-31T06:38:03;100752.15;;;16.36;67.30
49463;BME280;35357;51.722;0.500;2023-08-31T06:40:31;100755.64;;;16.01;67.49
49463;BME280;35357;51.722;0.500;2023-08-31T06:42:58;100752.65;;;16.38;67.06
49463;BME280;35357;51.722;0.500;2023-08-31T06:45:25;100751.87;;;16.00;68.04
49463;BME280;35357;51.722;0.500;2023-08-31T06:47:52;100757.75;;;16.18;67.61
49463;BME280;35357;51.722;0.500;2023-08-31T06:50:18;100763.88;;;16.41;66.69
49463;BME280;35357;51.722;0.500;2023-08-31T06:52:45;100763.48;;;16.54;67.23
49463;BME280;35357;51.722;0.500;2023-08-31T06:55:13;100759.98;;;16.30;67.73
49463;BME280;35357;51.722;0.500;2023-08-31T06:57:40;100758.91;;;16.72;67.24
49463;BME280;35357;51.722;0.500;2023-08-31T07:00:08;100755.28;;;16.07;67.39
49463;BME280;35357;51.722;0.500;2023-08-31T07:02:39;100757.41;;;16.65;67.50
49463;BME280;35357;51.722;0.500;2023-08-31T07:05:06;100757.21;;;16.14;69.71
49463;BME280;35357;51.722;0.500;2023-08-31T07:07:33;100760.22;;;16.84;67.64
49463;BME280;35357;51.722;0.500;2023-08-31T07:10:01;100764.09;;;16.90;67.16
49463;BME280;35357;51.722;0.500;2023-08-31T07:12:28;100763.92;;;16.91;67.47
49463;BME280;35357;51.722;0.500;2023-08-31T07:14:55;100765.82;;;17.01;67.88
49463;BME280;35357;51.722;0.500;2023-08-31T07:17:23;100766.50;;;16.95;67.40
49463;BME280;35357;51.722;0.500;2023-08-31T07:19:51;100770.55;;;16.88;67.78
49463;BME280;35357;51.722;0.500;2023-08-31T07:22:18;100771.12;;;16.91;67.49
49463;BME280;35357;51.722;0.500;2023-08-31T07:24:46;100767.74;;;17.54;67.42
49463;BME280;35357;51.722;0.500;2023-08-31T07:27:13;100770.39;;;17.31;67.65
49463;BME280;35357;51.722;0.500;2023-08-31T07:29:40;100777.74;;;17.26;66.70
49463;BME280;35357;51.722;0.500;2023-08-31T07:32:07;100775.70;;;17.31;66.52
49463;BME280;35357;51.722;0.500;2023-08-31T07:34:34;100775.19;;;17.31;66.21
49463;BME280;35357;51.722;0.500;2023-08-31T07:37:01;100777.02;;;17.66;65.16
49463;BME280;35357;51.722;0.500;2023-08-31T07:39:28;100774.61;;;16.97;66.24
49463;BME280;35357;51.722;0.500;2023-08-31T07:41:57;100771.22;;;17.62;65.49
49463;BME280;35357;51.722;0.500;2023-08-31T07:44:25;100768.84;;;17.88;63.55
49463;BME280;35357;51.722;0.500;2023-08-31T07:46:52;100765.42;;;18.27;62.35
49463;BME280;35357;51.722;0.500;2023-08-31T07:49:19;100762.62;;;18.39;62.67
49463;BME280;35357;51.722;0.500;2023-08-31T07:51:46;100761.74;;;18.62;60.00
49463;BME280;35357;51.722;0.500;2023-08-31T07:54:19;100767.83;;;17.76;62.42
49463;BME280;35357;51.722;0.500;2023-08-31T07:56:46;100766.91;;;17.43;64.49
49463;BME280;35357;51.722;0.500;2023-08-31T07:59:13;100768.72;;;15.79;68.00
49463;BME280;35357;51.722;0.500;2023-08-31T08:01:40;100764.83;;;17.39;65.52
49463;BME280;35357;51.722;0.500;2023-08-31T08:04:07;100762.12;;;18.20;62.39
49463;BME280;35357;51.722;0.500;2023-08-31T08:06:35;100761.55;;;18.70;61.26
49463;BME280;35357;51.722;0.500;2023-08-31T08:09:02;100759.69;;;18.89;60.31
49463;BME280;35357;51.722;0.500;2023-08-31T08:11:29;100762.11;;;17.95;61.14
49463;BME280;35357;51.722;0.500;2023-08-31T08:13:56;100763.95;;;18.94;58.95
49463;BME280;35357;51.722;0.500;2023-08-31T08:16:24;100765.54;;;19.04;57.36
49463;BME280;35357;51.722;0.500;2023-08-31T08:18:51;100768.43;;;19.52;57.43
49463;BME280;35357;51.722;0.500;2023-08-31T08:21:19;100771.41;;;19.66;56.96
49463;BME280;35357;51.722;0.500;2023-08-31T08:23:52;100774.82;;;19.93;56.47
49463;BME280;35357;51.722;0.500;2023-08-31T08:26:19;100777.10;;;20.16;56.64
49463;BME280;35357;51.722;0.500;2023-08-31T08:28:47;100775.55;;;18.55;58.55
49463;BME280;35357;51.722;0.500;2023-08-31T08:31:13;100773.73;;;19.89;57.15
49463;BME280;35357;51.722;0.500;2023-08-31T08:33:40;100775.69;;;19.82;55.27
49463;BME280;35357;51.722;0.500;2023-08-31T08:36:07;100771.70;;;20.46;54.09
49463;BME280;35357;51.722;0.500;2023-08-31T08:38:35;100768.07;;;19.76;53.93
49463;BME280;35357;51.722;0.500;2023-08-31T08:41:05;100767.16;;;20.52;52.58
49463;BME280;35357;51.722;0.500;2023-08-31T08:43:33;100773.24;;;20.54;51.31
49463;BME280;35357;51.722;0.500;2023-08-31T08:46:04;100776.26;;;19.16;53.20
49463;BME280;35357;51.722;0.500;2023-08-31T08:48:34;100774.74;;;20.67;52.32
49463;BME280;35357;51.722;0.500;2023-08-31T08:51:03;100775.57;;;20.81;51.04
49463;BME280;35357;51.722;0.500;2023-08-31T08:53:31;100778.23;;;19.54;53.38
49463;BME280;35357;51.722;0.500;2023-08-31T08:55:58;100775.26;;;20.85;51.28
49463;BME280;35357;51.722;0.500;2023-08-31T08:58:25;100782.18;;;19.96;52.45
49463;BME280;35357;51.722;0.500;2023-08-31T09:00:54;100776.49;;;21.05;51.05
49463;BME280;35357;51.722;0.500;2023-08-31T09:03:22;100772.01;;;21.12;50.64
49463;BME280;35357;51.722;0.500;2023-08-31T09:05:50;100770.11;;;21.82;49.63
49463;BME280;35357;51.722;0.500;2023-08-31T09:08:17;100769.16;;;21.81;50.38
49463;BME280;35357;51.722;0.500;2023-08-31T09:10:52;100767.03;;;21.16;50.50
49463;BME280;35357;51.722;0.500;2023-08-31T09:13:18;100765.48;;;20.75;50.18
49463;BME280;35357;51.722;0.500;2023-08-31T09:15:46;100769.42;;;21.39;49.24
49463;BME280;35357;51.722;0.500;2023-08-31T09:18:15;100767.54;;;21.03;49.87
49463;BME280;35357;51.722;0.500;2023-08-31T09:20:44;100766.46;;;20.37;50.97
49463;BME280;35357;51.722;0.500;2023-08-31T09:23:11;100762.48;;;21.61;50.01
49463;BME280;35357;51.722;0.500;2023-08-31T09:25:42;100760.06;;;21.96;48.68
49463;BME280;35357;51.722;0.500;2023-08-31T09:28:09;100758.31;;;21.06;50.14
49463;BME280;35357;51.722;0.500;2023-08-31T09:30:37;100758.06;;;21.12;49.18
49463;BME280;35357;51.722;0.500;2023-08-31T09:33:05;100756.87;;;21.87;48.58
49463;BME280;35357;51.722;0.500;2023-08-31T09:35:34;100759.09;;;21.81;48.11
49463;BME280;35357;51.722;0.500;2023-08-31T09:38:07;100756.69;;;21.27;49.31
49463;BME280;35357;51.722;0.500;2023-08-31T09:40:35;100757.39;;;22.25;48.81
49463;BME280;35357;51.722;0.500;2023-08-31T09:43:03;100758.74;;;22.48;48.45
49463;BME280;35357;51.722;0.500;2023-08-31T09:45:32;100752.52;;;22.05;48.43
49463;BME280;35357;51.722;0.500;2023-08-31T09:48:01;100753.28;;;22.34;48.24
49463;BME280;35357;51.722;0.500;2023-08-31T09:50:29;100755.47;;;22.22;48.34
49463;BME280;35357;51.722;0.500;2023-08-31T09:53:01;100756.07;;;22.86;47.80
49463;BME280;35357;51.722;0.500;2023-08-31T09:55:28;100756.46;;;22.66;48.80
49463;BME280;35357;51.722;0.500;2023-08-31T09:57:57;100752.67;;;22.69;47.24
49463;BME280;35357;51.722;0.500;2023-08-31T10:00:26;100755.99;;;21.45;49.17
49463;BME280;35357;51.722;0.500;2023-08-31T10:02:55;100757.04;;;18.52;54.69
49463;BME280;35357;51.722;0.500;2023-08-31T10:05:24;100753.76;;;20.80;52.40
49463;BME280;35357;51.722;0.500;2023-08-31T10:07:51;100754.35;;;20.73;53.65
49463;BME280;35357;51.722;0.500;2023-08-31T10:10:19;100751.76;;;21.28;51.12
49463;BME280;35357;51.722;0.500;2023-08-31T10:12:48;100758.33;;;19.60;53.02
49463;BME280;35357;51.722;0.500;2023-08-31T10:15:16;100749.72;;;21.08;49.68
49463;BME280;35357;51.722;0.500;2023-08-31T10:17:44;100748.68;;;20.18;50.84
49463;BME280;35357;51.722;0.500;2023-08-31T10:20:13;100747.48;;;20.30;50.23
49463;BME280;35357;51.722;0.500;2023-08-31T10:22:41;100744.39;;;22.01;48.03
49463;BME280;35357;51.722;0.500;2023-08-31T10:25:09;100744.22;;;21.65;49.19
49463;BME280;35357;51.722;0.500;2023-08-31T10:27:38;100750.78;;;19.36;52.89
49463;BME280;35357;51.722;0.500;2023-08-31T10:30:37;100748.95;;;19.23;52.29
49463;BME280;35357;51.722;0.500;2023-08-31T10:33:21;100745.79;;;20.22;51.11
49463;BME280;35357;51.722;0.500;2023-08-31T10:35:49;100747.62;;;21.26;49.60
49463;BME280;35357;51.722;0.500;2023-08-31T10:38:23;100745.69;;;21.03;49.41
49463;BME280;35357;51.722;0.500;2023-08-31T10:41:23;100742.92;;;21.81;47.41
49463;BME280;35357;51.722;0.500;2023-08-31T10:43:52;100740.36;;;21.31;49.57
49463;BME280;35357;51.722;0.500;2023-08-31T10:46:29;100737.55;;;22.21;47.87
49463;BME280;35357;51.722;0.500;2023-08-31T10:48:59;100738.61;;;21.66;48.79
49463;BME280;35357;51.722;0.500;2023-08-31T10:51:28;100735.98;;;22.15;48.11
49463;BME280;35357;51.722;0.500;2023-08-31T10:54:19;100735.53;;;22.43;47.60
49463;BME280;35357;51.722;0.500;2023-08-31T10:57:00;100731.82;;;22.20;46.53
49463;BME280;35357;51.722;0.500;2023-08-31T10:59:42;100733.73;;;21.62;49.28
49463;BME280;35357;51.722;0.500;2023-08-31T11:02:10;100733.01;;;20.91;49.10
49463;BME280;35357;51.722;0.500;2023-08-31T11:04:53;100735.66;;;21.49;49.30
49463;BME280;35357;51.722;0.500;2023-08-31T11:07:24;100730.23;;;21.22;48.45
49463;BME280;35357;51.722;0.500;2023-08-31T11:09:52;100727.96;;;20.62;49.79
49463;BME280;35357;51.722;0.500;2023-08-31T11:12:22;100732.73;;;21.10;49.52
49463;BME280;35357;51.722;0.500;2023-08-31T11:14:49;100737.13;;;21.18;49.49
49463;BME280;35357;51.722;0.500;2023-08-31T11:17:17;100742.19;;;21.46;49.09
49463;BME280;35357;51.722;0.500;2023-08-31T11:19:44;100744.07;;;19.35;53.39
49463;BME280;35357;51.722;0.500;2023-08-31T11:22:12;100740.24;;;20.49;51.74
49463;BME280;35357;51.722;0.500;2023-08-31T11:24:39;100737.46;;;20.58;50.34
49463;BME280;35357;51.722;0.500;2023-08-31T11:27:08;100739.34;;;21.56;49.77
49463;BME280;35357;51.722;0.500;2023-08-31T11:29:37;100736.99;;;20.49;52.09
49463;BME280;35357;51.722;0.500;2023-08-31T11:32:05;100734.55;;;21.90;49.10
49463;BME280;35357;51.722;0.500;2023-08-31T11:34:33;100728.91;;;21.51;48.46
49463;BME280;35357;51.722;0.500;2023-08-31T11:36:59;100724.64;;;21.44;49.31
49463;BME280;35357;51.722;0.500;2023-08-31T11:39:26;100723.70;;;21.65;48.43
49463;BME280;35357;51.722;0.500;2023-08-31T11:41:55;100725.74;;;22.85;47.02
49463;BME280;35357;51.722;0.500;2023-08-31T11:44:21;100722.92;;;22.99;46.31
49463;BME280;35357;51.722;0.500;2023-08-31T11:46:49;100729.47;;;18.86;50.87
49463;BME280;35357;51.722;0.500;2023-08-31T11:49:18;100724.42;;;20.06;50.03
49463;BME280;35357;51.722;0.500;2023-08-31T11:51:46;100721.39;;;21.22;48.59
49463;BME280;35357;51.722;0.500;2023-08-31T11:54:13;100718.76;;;21.26;48.86
49463;BME280;35357;51.722;0.500;2023-08-31T11:56:44;100720.43;;;22.20;47.77
49463;BME280;35357;51.722;0.500;2023-08-31T11:59:17;100717.41;;;21.64;47.88
49463;BME280;35357;51.722;0.500;2023-08-31T12:01:46;100718.10;;;21.66;47.09
49463;BME280;35357;51.722;0.500;2023-08-31T12:04:14;100721.23;;;21.17;47.23
49463;BME280;35357;51.722;0.500;2023-08-31T12:06:42;100721.87;;;22.42;45.39
49463;BME280;35357;51.722;0.500;2023-08-31T12:09:12;100720.93;;;22.59;45.32
49463;BME280;35357;51.722;0.500;2023-08-31T12:11:39;100726.29;;;22.07;45.46
49463;BME280;35357;51.722;0.500;2023-08-31T12:14:19;100722.75;;;22.22;42.80
49463;BME280;35357;51.722;0.500;2023-08-31T12:16:47;100719.83;;;22.78;43.53
49463;BME280;35357;51.722;0.500;2023-08-31T12:19:14;100719.97;;;23.23;43.16
49463;BME280;35357;51.722;0.500;2023-08-31T12:21:43;100720.01;;;22.70;43.74
49463;BME280;35357;51.722;0.500;2023-08-31T12:24:11;100719.77;;;23.22;42.77
49463;BME280;35357;51.722;0.500;2023-08-31T12:26:39;100720.75;;;21.58;44.06
49463;BME280;35357;51.722;0.500;2023-08-31T12:29:06;100717.26;;;22.65;42.85
49463;BME280;35357;51.722;0.500;2023-08-31T12:31:33;100713.95;;;22.88;42.69
49463;BME280;35357;51.722;0.500;2023-08-31T12:34:01;100710.21;;;22.53;43.02
49463;BME280;35357;51.722;0.500;2023-08-31T12:36:28;100706.29;;;20.34;45.59
49463;BME280;35357;51.722;0.500;2023-08-31T12:38:55;100702.72;;;21.23;45.75
49463;BME280;35357;51.722;0.500;2023-08-31T12:41:21;100701.95;;;22.77;43.64
49463;BME280;35357;51.722;0.500;2023-08-31T12:43:49;100703.75;;;24.14;42.07
49463;BME280;35357;51.722;0.500;2023-08-31T12:46:17;100702.64;;;23.40;41.90
49463;BME280;35357;51.722;0.500;2023-08-31T12:48:44;100694.77;;;23.91;41.41
49463;BME280;35357;51.722;0.500;2023-08-31T12:51:11;100690.58;;;23.51;42.96
49463;BME280;35357;51.722;0.500;2023-08-31T12:53:38;100697.48;;;24.53;40.68
49463;BME280;35357;51.722;0.500;2023-08-31T12:56:05;100699.90;;;24.17;41.42